sensor_id;sensor_type;location;lat;lon;timestamp;pressure;altitude;pressure_sealevel;temperature;humidity
81243;BME280;70716;50.074;14.496;2023-06-22T00:01:22;99240.41;;;19.05;86.01
81243;BME280;70716;50.074;14.496;2023-06-22T00:03:48;99241.84;;;18.99;86.11
81243;BME280;70716;50.074;14.496;2023-06-22T00:06:14;99237.06;;;18.96;86.25
81243;BME280;70716;50.074;14.496;2023-06-22T00:08:41;99236.97;;;18.92;86.59
81243;BME280;70716;50.074;14.496;2023-06-22T00:11:06;99243.66;;;18.91;86.59
81243;BME280;70716;50.074;14.496;2023-06-22T00:13:32;99246.00;;;18.89;86.52
81243;BME280;70716;50.074;14.496;2023-06-22T00:15:57;99249.25;;;18.95;86.40
81243;BME280;70716;50.074;14.496;2023-06-22T00:18:22;99245.25;;;18.92;86.46
81243;BME280;70716;50.074;14.496;2023-06-22T00:20:55;99242.50;;;18.92;85.87
81243;BME280;70716;50.074;14.496;2023-06-22T00:23:24;99241.91;;;18.83;86.64
81243;BME280;70716;50.074;14.496;2023-06-22T00:25:50;99243.88;;;18.83;86.78
81243;BME280;70716;50.074;14.496;2023-06-22T00:28:16;99249.75;;;18.81;86.75
81243;BME280;70716;50.074;14.496;2023-06-22T00:30:41;99250.13;;;18.79;86.74
81243;BME280;70716;50.074;14.496;2023-06-22T00:33:07;99248.16;;;18.80;86.49
81243;BME280;70716;50.074;14.496;2023-06-22T00:35:33;99250.56;;;18.82;86.40
81243;BME280;70716;50.074;14.496;2023-06-22T00:38:01;99253.16;;;18.74;86.79
81243;BME280;70716;50.074;14.496;2023-06-22T00:40:32;99248.72;;;18.70;86.93
81243;BME280;70716;50.074;14.496;2023-06-22T00:43:01;99241.16;;;18.67;87.17
81243;BME280;70716;50.074;14.496;2023-06-22T00:45:26;99246.16;;;18.61;87.99
81243;BME280;70716;50.074;14.496;2023-06-22T00:47:53;99246.03;;;18.58;88.25
81243;BME280;70716;50.074;14.496;2023-06-22T00:50:22;99234.47;;;18.52;88.38
81243;BME280;70716;50.074;14.496;2023-06-22T00:52:52;99241.50;;;18.49;88.55
81243;BME280;70716;50.074;14.496;2023-06-22T00:55:22;99237.53;;;18.47;88.50
81243;BME280;70716;50.074;14.496;2023-06-22T00:57:47;99242.63;;;18.45;88.04
81243;BME280;70716;50.074;14.496;2023-06-22T01:00:16;99236.66;;;18.43;88.44
81243;BME280;70716;50.074;14.496;2023-06-22T01:02:50;99237.38;;;18.40;88.89
81243;BME280;70716;50.074;14.496;2023-06-22T01:05:23;99227.06;;;18.37;88.65
81243;BME280;70716;50.074;14.496;2023-06-22T01:13:10;99217.09;;;18.32;88.54
81243;BME280;70716;50.074;14.496;2023-06-22T01:15:45;99219.69;;;18.25;88.76
81243;BME280;70716;50.074;14.496;2023-06-22T01:18:16;99207.75;;;18.21;88.88
81243;BME280;70716;50.074;14.496;2023-06-22T01:20:44;99212.31;;;18.13;89.28
81243;BME280;70716;50.074;14.496;2023-06-22T01:26:22;99205.47;;;18.07;89.70
81243;BME280;70716;50.074;14.496;2023-06-22T01:28:54;99203.78;;;18.03;89.85
81243;BME280;70716;50.074;14.496;2023-06-22T01:31:23;99212.41;;;18.01;90.00
81243;BME280;70716;50.074;14.496;2023-06-22T01:33:58;99205.19;;;17.97;90.17
81243;BME280;70716;50.074;14.496;2023-06-22T01:36:26;99207.06;;;17.93;90.16
81243;BME280;70716;50.074;14.496;2023-06-22T01:38:53;99199.09;;;17.88;90.38
81243;BME280;70716;50.074;14.496;2023-06-22T01:41:24;99197.84;;;17.85;90.26
81243;BME280;70716;50.074;14.496;2023-06-22T01:43:50;99203.00;;;17.87;89.90
81243;BME280;70716;50.074;14.496;2023-06-22T01:46:18;99200.69;;;17.89;89.81
81243;BME280;70716;50.074;14.496;2023-06-22T01:48:45;99194.97;;;17.97;89.51
81243;BME280;70716;50.074;14.496;2023-06-22T01:51:16;99204.66;;;17.91;89.86
81243;BME280;70716;50.074;14.496;2023-06-22T01:53:41;99205.41;;;17.88;89.68
81243;BME280;70716;50.074;14.496;2023-06-22T01:56:10;99207.00;;;17.89;89.86
81243;BME280;70716;50.074;14.496;2023-06-22T01:58:42;99209.66;;;17.86;90.04
81243;BME280;70716;50.074;14.496;2023-06-22T02:01:16;99209.22;;;17.84;89.67
81243;BME280;70716;50.074;14.496;2023-06-22T02:04:13;99221.84;;;17.85;90.02
81243;BME280;70716;50.074;14.496;2023-06-22T02:06:44;99226.66;;;17.88;89.93
81243;BME280;70716;50.074;14.496;2023-06-22T02:09:16;99220.34;;;17.87;89.90
81243;BME280;70716;50.074;14.496;2023-06-22T02:11:44;99229.31;;;17.84;90.04
81243;BME280;70716;50.074;14.496;2023-06-22T02:14:14;99226.13;;;17.82;90.32
81243;BME280;70716;50.074;14.496;2023-06-22T02:16:41;99221.75;;;17.81;90.03
81243;BME280;70716;50.074;14.496;2023-06-22T02:19:07;99230.13;;;17.85;89.77
81243;BME280;70716;50.074;14.496;2023-06-22T02:21:33;99234.84;;;17.84;90.15
81243;BME280;70716;50.074;14.496;2023-06-22T02:23:59;99228.44;;;17.80;90.41
81243;BME280;70716;50.074;14.496;2023-06-22T02:26:27;99231.53;;;17.78;90.27
81243;BME280;70716;50.074;14.496;2023-06-22T02:28:57;99232.59;;;17.74;90.47
81243;BME280;70716;50.074;14.496;2023-06-22T02:31:22;99233.75;;;17.73;90.48
81243;BME280;70716;50.074;14.496;2023-06-22T02:33:48;99233.31;;;17.71;90.64
81243;BME280;70716;50.074;14.496;2023-06-22T02:36:14;99235.72;;;17.72;90.52
81243;BME280;70716;50.074;14.496;2023-06-22T02:38:43;99227.00;;;17.70;90.50
81243;BME280;70716;50.074;14.496;2023-06-22T02:41:14;99241.13;;;17.69;90.89
81243;BME280;70716;50.074;14.496;2023-06-22T02:43:50;99226.78;;;17.63;90.78
81243;BME280;70716;50.074;14.496;2023-06-22T02:46:18;99235.97;;;17.67;90.34
81243;BME280;70716;50.074;14.496;2023-06-22T02:48:44;99235.03;;;17.63;90.81
81243;BME280;70716;50.074;14.496;2023-06-22T02:51:09;99232.66;;;17.62;90.82
81243;BME280;70716;50.074;14.496;2023-06-22T02:53:34;99234.56;;;17.73;90.12
81243;BME280;70716;50.074;14.496;2023-06-22T02:56:03;99231.25;;;17.68;90.64
81243;BME280;70716;50.074;14.496;2023-06-22T02:58:31;99227.69;;;17.67;90.54
81243;BME280;70716;50.074;14.496;2023-06-22T03:01:04;99222.41;;;17.62;90.55
81243;BME280;70716;50.074;14.496;2023-06-22T03:03:30;99222.06;;;17.64;90.55
81243;BME280;70716;50.074;14.496;2023-06-22T03:05:55;99221.38;;;17.67;90.36
81243;BME280;70716;50.074;14.496;2023-06-22T03:08:21;99215.41;;;17.65;90.28
81243;BME280;70716;50.074;14.496;2023-06-22T03:10:46;99216.91;;;17.62;90.52
81243;BME280;70716;50.074;14.496;2023-06-22T03:13:11;99219.53;;;17.71;90.04
81243;BME280;70716;50.074;14.496;2023-06-22T03:15:38;99212.94;;;17.75;89.63
81243;BME280;70716;50.074;14.496;2023-06-22T03:18:03;99230.38;;;17.79;89.71
81243;BME280;70716;50.074;14.496;2023-06-22T03:20:29;99222.81;;;17.92;89.30
81243;BME280;70716;50.074;14.496;2023-06-22T03:22:58;99221.81;;;18.00;88.81
81243;BME280;70716;50.074;14.496;2023-06-22T03:25:24;99235.44;;;18.09;88.50
81243;BME280;70716;50.074;14.496;2023-06-22T03:27:49;99232.06;;;18.15;88.24
81243;BME280;70716;50.074;14.496;2023-06-22T03:30:15;99233.13;;;18.27;87.60
81243;BME280;70716;50.074;14.496;2023-06-22T03:32:40;99236.50;;;18.36;87.13
81243;BME280;70716;50.074;14.496;2023-06-22T03:35:06;99241.72;;;18.41;86.86
81243;BME280;70716;50.074;14.496;2023-06-22T03:37:31;99238.63;;;18.42;87.16
81243;BME280;70716;50.074;14.496;2023-06-22T03:39:57;99241.38;;;18.42;86.96
81243;BME280;70716;50.074;14.496;2023-06-22T03:42:28;99241.00;;;18.44;86.97
81243;BME280;70716;50.074;14.496;2023-06-22T03:44:53;99242.63;;;18.45;86.77
81243;BME280;70716;50.074;14.496;2023-06-22T03:47:19;99240.66;;;18.45;86.54
81243;BME280;70716;50.074;14.496;2023-06-22T03:49:44;99233.22;;;18.49;86.58
81243;BME280;70716;50.074;14.496;2023-06-22T03:52:09;99235.34;;;18.56;86.50
81243;BME280;70716;50.074;14.496;2023-06-22T03:54:36;99230.91;;;18.52;86.50
81243;BME280;70716;50.074;14.496;2023-06-22T03:57:04;99223.34;;;18.48;86.81
81243;BME280;70716;50.074;14.496;2023-06-22T03:59:30;99236.06;;;18.53;86.54
81243;BME280;70716;50.074;14.496;2023-06-22T04:01:55;99232.59;;;18.56;86.67
81243;BME280;70716;50.074;14.496;2023-06-22T04:04:24;99223.28;;;18.61;86.47
81243;BME280;70716;50.074;14.496;2023-06-22T04:06:49;99220.09;;;18.78;85.72
81243;BME280;70716;50.074;14.496;2023-06-22T04:09:14;99226.72;;;18.93;84.93
81243;BME280;70716;50.074;14.496;2023-06-22T04:11:40;99225.84;;;19.08;84.38
81243;BME280;70716;50.074;14.496;2023-06-22T04:14:05;99226.34;;;19.13;84.39
81243;BME280;70716;50.074;14.496;2023-06-22T04:16:31;99229.69;;;19.23;83.70
81243;BME280;70716;50.074;14.496;2023-06-22T04:18:57;99226.78;;;19.35;83.35
81243;BME280;70716;50.074;14.496;2023-06-22T04:21:22;99229.84;;;19.30;83.48
81243;BME280;70716;50.074;14.496;2023-06-22T04:23:49;99227.84;;;19.50;82.40
81243;BME280;70716;50.074;14.496;2023-06-22T04:26:14;99210.38;;;19.65;82.05
81243;BME280;70716;50.074;14.496;2023-06-22T04:28:41;99206.69;;;19.80;81.17
81243;BME280;70716;50.074;14.496;2023-06-22T04:31:06;99213.63;;;19.93;80.63
81243;BME280;70716;50.074;14.496;2023-06-22T04:33:31;99225.63;;;20.01;80.39
81243;BME280;70716;50.074;14.496;2023-06-22T04:35:57;99217.06;;;20.09;80.50
81243;BME280;70716;50.074;14.496;2023-06-22T04:38:27;99211.28;;;20.18;79.29
81243;BME280;70716;50.074;14.496;2023-06-22T04:40:52;99213.75;;;20.00;80.01
81243;BME280;70716;50.074;14.496;2023-06-22T04:43:20;99216.75;;;20.15;80.80
81243;BME280;70716;50.074;14.496;2023-06-22T04:45:45;99221.13;;;20.16;79.95
81243;BME280;70716;50.074;14.496;2023-06-22T04:48:11;99226.16;;;20.10;80.78
81243;BME280;70716;50.074;14.496;2023-06-22T04:50:42;99227.03;;;20.14;80.08
81243;BME280;70716;50.074;14.496;2023-06-22T04:53:07;99232.69;;;19.98;80.72
81243;BME280;70716;50.074;14.496;2023-06-22T04:55:35;99231.41;;;20.15;80.16
81243;BME280;70716;50.074;14.496;2023-06-22T04:58:02;99233.25;;;20.34;79.12
81243;BME280;70716;50.074;14.496;2023-06-22T05:00:31;99240.63;;;20.49;79.45
81243;BME280;70716;50.074;14.496;2023-06-22T05:02:59;99246.34;;;20.60;78.36
81243;BME280;70716;50.074;14.496;2023-06-22T05:05:29;99247.72;;;20.73;77.57
81243;BME280;70716;50.074;14.496;2023-06-22T05:07:56;99242.97;;;20.73;77.57
81243;BME280;70716;50.074;14.496;2023-06-22T05:10:26;99242.13;;;20.99;77.06
81243;BME280;70716;50.074;14.496;2023-06-22T05:12:51;99240.19;;;21.33;75.83
81243;BME280;70716;50.074;14.496;2023-06-22T05:15:17;99246.09;;;21.65;73.83
81243;BME280;70716;50.074;14.496;2023-06-22T05:17:44;99253.03;;;22.30;71.85
81243;BME280;70716;50.074;14.496;2023-06-22T05:20:11;99258.06;;;22.68;70.99
81243;BME280;70716;50.074;14.496;2023-06-22T05:22:40;99262.28;;;22.45;70.90
81243;BME280;70716;50.074;14.496;2023-06-22T05:25:12;99267.19;;;22.69;70.63
81243;BME280;70716;50.074;14.496;2023-06-22T05:27:38;99265.03;;;23.03;68.70
81243;BME280;70716;50.074;14.496;2023-06-22T05:30:08;99273.47;;;23.28;67.42
81243;BME280;70716;50.074;14.496;2023-06-22T05:32:34;99279.59;;;23.69;65.75
81243;BME280;70716;50.074;14.496;2023-06-22T05:34:59;99277.31;;;24.35;63.29
81243;BME280;70716;50.074;14.496;2023-06-22T05:37:25;99285.66;;;24.17;63.46
81243;BME280;70716;50.074;14.496;2023-06-22T05:39:51;99288.03;;;24.54;62.33
81243;BME280;70716;50.074;14.496;2023-06-22T05:42:20;99290.75;;;24.90;60.82
81243;BME280;70716;50.074;14.496;2023-06-22T05:44:48;99292.97;;;25.52;59.39
81243;BME280;70716;50.074;14.496;2023-06-22T05:47:14;99296.34;;;25.98;57.97
81243;BME280;70716;50.074;14.496;2023-06-22T05:49:39;99298.16;;;26.19;57.38
81243;BME280;70716;50.074;14.496;2023-06-22T05:52:05;99308.38;;;26.44;56.15
81243;BME280;70716;50.074;14.496;2023-06-22T05:54:30;99306.72;;;25.94;56.38
81243;BME280;70716;50.074;14.496;2023-06-22T05:56:56;99304.47;;;26.34;55.76
81243;BME280;70716;50.074;14.496;2023-06-22T05:59:25;99308.34;;;26.47;54.90
81243;BME280;70716;50.074;14.496;2023-06-22T06:01:50;99296.09;;;27.16;53.17
81243;BME280;70716;50.074;14.496;2023-06-22T06:04:19;99287.78;;;27.43;51.73
81243;BME280;70716;50.074;14.496;2023-06-22T06:06:45;99290.31;;;26.55;53.85
81243;BME280;70716;50.074;14.496;2023-06-22T06:09:16;99285.94;;;26.92;53.46
81243;BME280;70716;50.074;14.496;2023-06-22T06:11:43;99293.72;;;27.15;53.69
81243;BME280;70716;50.074;14.496;2023-06-22T06:14:10;99309.94;;;27.27;52.52
81243;BME280;70716;50.074;14.496;2023-06-22T06:16:35;99301.72;;;27.47;51.26
81243;BME280;70716;50.074;14.496;2023-06-22T06:19:01;99303.53;;;27.64;51.28
81243;BME280;70716;50.074;14.496;2023-06-22T06:21:32;99302.81;;;28.14;50.67
81243;BME280;70716;50.074;14.496;2023-06-22T06:23:57;99307.94;;;27.27;52.49
81243;BME280;70716;50.074;14.496;2023-06-22T06:26:23;99311.19;;;27.22;52.41
81243;BME280;70716;50.074;14.496;2023-06-22T06:28:53;99305.59;;;27.87;50.74
81243;BME280;70716;50.074;14.496;2023-06-22T06:31:20;99294.50;;;28.34;49.31
81243;BME280;70716;50.074;14.496;2023-06-22T06:33:46;99295.41;;;28.97;48.26
81243;BME280;70716;50.074;14.496;2023-06-22T06:36:11;99294.16;;;28.05;50.21
81243;BME280;70716;50.074;14.496;2023-06-22T06:38:40;99293.16;;;28.88;48.19
81243;BME280;70716;50.074;14.496;2023-06-22T06:41:08;99293.78;;;28.76;48.15
81243;BME280;70716;50.074;14.496;2023-06-22T06:43:34;99286.28;;;28.46;49.41
81243;BME280;70716;50.074;14.496;2023-06-22T06:45:59;99289.91;;;28.20;49.35
81243;BME280;70716;50.074;14.496;2023-06-22T06:48:24;99292.13;;;28.79;48.42
81243;BME280;70716;50.074;14.496;2023-06-22T06:50:50;99289.22;;;28.12;49.99
81243;BME280;70716;50.074;14.496;2023-06-22T06:53:16;99290.13;;;28.56;49.65
81243;BME280;70716;50.074;14.496;2023-06-22T06:55:41;99278.25;;;28.25;50.23
81243;BME280;70716;50.074;14.496;2023-06-22T06:58:08;99280.38;;;28.64;48.74
81243;BME280;70716;50.074;14.496;2023-06-22T07:00:38;99273.59;;;28.38;49.50
81243;BME280;70716;50.074;14.496;2023-06-22T07:03:08;99274.34;;;29.48;46.03
81243;BME280;70716;50.074;14.496;2023-06-22T07:05:35;99273.72;;;29.77;45.16
81243;BME280;70716;50.074;14.496;2023-06-22T07:08:03;99275.69;;;29.44;45.13
81243;BME280;70716;50.074;14.496;2023-06-22T07:10:32;99268.31;;;29.30;46.20
81243;BME280;70716;50.074;14.496;2023-06-22T07:12:57;99259.25;;;29.22;46.72
81243;BME280;70716;50.074;14.496;2023-06-22T07:15:22;99256.28;;;29.49;46.13
81243;BME280;70716;50.074;14.496;2023-06-22T07:17:48;99263.31;;;29.57;46.20
81243;BME280;70716;50.074;14.496;2023-06-22T07:20:13;99253.47;;;28.90;47.84
81243;BME280;70716;50.074;14.496;2023-06-22T07:22:43;99253.63;;;29.22;47.22
81243;BME280;70716;50.074;14.496;2023-06-22T07:25:10;99252.28;;;29.67;46.22
81243;BME280;70716;50.074;14.496;2023-06-22T07:27:43;99246.22;;;30.20;44.48
81243;BME280;70716;50.074;14.496;2023-06-22T07:30:10;99244.00;;;29.96;44.89
81243;BME280;70716;50.074;14.496;2023-06-22T07:32:36;99242.28;;;30.02;44.60
81243;BME280;70716;50.074;14.496;2023-06-22T07:35:02;99243.88;;;30.03;45.28
81243;BME280;70716;50.074;14.496;2023-06-22T07:37:28;99241.81;;;30.52;43.96
81243;BME280;70716;50.074;14.496;2023-06-22T07:39:54;99240.94;;;30.55;43.59
81243;BME280;70716;50.074;14.496;2023-06-22T07:42:25;99241.72;;;30.55;44.24
81243;BME280;70716;50.074;14.496;2023-06-22T07:44:51;99235.41;;;30.19;45.29
81243;BME280;70716;50.074;14.496;2023-06-22T07:47:16;99233.66;;;30.25;45.80
81243;BME280;70716;50.074;14.496;2023-06-22T07:49:44;99224.69;;;30.30;45.30
81243;BME280;70716;50.074;14.496;2023-06-22T07:52:10;99227.78;;;30.36;44.99
81243;BME280;70716;50.074;14.496;2023-06-22T07:54:36;99226.63;;;30.33;44.99
81243;BME280;70716;50.074;14.496;2023-06-22T07:57:02;99215.22;;;30.24;45.12
81243;BME280;70716;50.074;14.496;2023-06-22T07:59:27;99210.75;;;30.72;43.67
81243;BME280;70716;50.074;14.496;2023-06-22T08:01:55;99211.34;;;30.18;44.64
81243;BME280;70716;50.074;14.496;2023-06-22T08:04:23;99211.72;;;30.04;45.41
81243;BME280;70716;50.074;14.496;2023-06-22T08:06:48;99210.16;;;29.67;45.70
81243;BME280;70716;50.074;14.496;2023-06-22T08:09:14;99200.44;;;29.87;44.72
81243;BME280;70716;50.074;14.496;2023-06-22T08:11:40;99204.16;;;29.48;46.64
81243;BME280;70716;50.074;14.496;2023-06-22T08:14:05;99197.97;;;29.73;45.71
81243;BME280;70716;50.074;14.496;2023-06-22T08:16:30;99196.00;;;29.54;46.15
81243;BME280;70716;50.074;14.496;2023-06-22T08:18:56;99198.81;;;29.54;46.08
81243;BME280;70716;50.074;14.496;2023-06-22T08:21:22;99192.28;;;29.41;45.96
81243;BME280;70716;50.074;14.496;2023-06-22T08:23:48;99194.63;;;29.26;45.83
81243;BME280;70716;50.074;14.496;2023-06-22T08:26:14;99193.91;;;29.42;45.37
81243;BME280;70716;50.074;14.496;2023-06-22T08:28:39;99191.94;;;29.39;46.02
81243;BME280;70716;50.074;14.496;2023-06-22T08:31:05;99184.84;;;29.14;46.45
81243;BME280;70716;50.074;14.496;2023-06-22T08:33:30;99185.63;;;28.95;46.99
81243;BME280;70716;50.074;14.496;2023-06-22T08:35:57;99184.28;;;28.83;47.30
81243;BME280;70716;50.074;14.496;2023-06-22T08:38:26;99177.94;;;28.99;46.44
81243;BME280;70716;50.074;14.496;2023-06-22T08:40:51;99174.13;;;28.89;46.80
81243;BME280;70716;50.074;14.496;2023-06-22T08:43:17;99167.72;;;28.89;47.18
81243;BME280;70716;50.074;14.496;2023-06-22T08:45:42;99168.34;;;28.57;48.54
81243;BME280;70716;50.074;14.496;2023-06-22T08:48:07;99167.91;;;28.82;47.70
81243;BME280;70716;50.074;14.496;2023-06-22T08:50:33;99167.06;;;28.81;47.60
81243;BME280;70716;50.074;14.496;2023-06-22T08:52:58;99167.50;;;28.80;47.86
81243;BME280;70716;50.074;14.496;2023-06-22T08:55:24;99162.28;;;28.82;48.08
81243;BME280;70716;50.074;14.496;2023-06-22T08:57:49;99169.59;;;28.96;47.45
81243;BME280;70716;50.074;14.496;2023-06-22T09:00:15;99164.28;;;28.81;48.10
81243;BME280;70716;50.074;14.496;2023-06-22T09:02:51;99168.16;;;28.68;48.91
81243;BME280;70716;50.074;14.496;2023-06-22T09:05:16;99165.09;;;28.82;47.67
81243;BME280;70716;50.074;14.496;2023-06-22T09:07:43;99158.41;;;29.32;46.81
81243;BME280;70716;50.074;14.496;2023-06-22T09:10:08;99154.31;;;29.16;46.63
81243;BME280;70716;50.074;14.496;2023-06-22T09:12:34;99166.13;;;29.28;46.67
81243;BME280;70716;50.074;14.496;2023-06-22T09:15:02;99159.03;;;29.03;46.75
81243;BME280;70716;50.074;14.496;2023-06-22T09:17:28;99161.75;;;29.07;47.19
81243;BME280;70716;50.074;14.496;2023-06-22T09:19:56;99154.56;;;29.06;46.88
81243;BME280;70716;50.074;14.496;2023-06-22T09:22:23;99153.13;;;28.78;46.48
81243;BME280;70716;50.074;14.496;2023-06-22T09:24:49;99161.03;;;29.03;46.36
81243;BME280;70716;50.074;14.496;2023-06-22T09:27:17;99146.00;;;28.93;47.07
81243;BME280;70716;50.074;14.496;2023-06-22T09:29:45;99151.88;;;29.18;45.83
81243;BME280;70716;50.074;14.496;2023-06-22T09:32:11;99140.97;;;29.04;45.86
81243;BME280;70716;50.074;14.496;2023-06-22T13:17:21;98937.63;;;30.41;41.75
81243;BME280;70716;50.074;14.496;2023-06-22T13:19:47;98933.81;;;30.47;40.16
81243;BME280;70716;50.074;14.496;2023-06-22T13:22:32;98931.00;;;30.47;40.31
81243;BME280;70716;50.074;14.496;2023-06-22T13:25:00;98916.63;;;30.45;40.96
81243;BME280;70716;50.074;14.496;2023-06-22T13:27:25;98909.53;;;30.41;40.83
81243;BME280;70716;50.074;14.496;2023-06-22T13:29:51;98923.13;;;30.42;40.81
81243;BME280;70716;50.074;14.496;2023-06-22T13:32:16;98918.84;;;30.38;41.86
81243;BME280;70716;50.074;14.496;2023-06-22T13:34:42;98918.53;;;30.36;41.45
81243;BME280;70716;50.074;14.496;2023-06-22T13:37:11;98921.78;;;30.34;41.43
81243;BME280;70716;50.074;14.496;2023-06-22T13:39:39;98914.47;;;30.49;41.08
81243;BME280;70716;50.074;14.496;2023-06-22T13:42:05;98911.38;;;30.60;41.60
81243;BME280;70716;50.074;14.496;2023-06-22T13:44:34;98914.81;;;30.51;41.81
81243;BME280;70716;50.074;14.496;2023-06-22T13:46:59;98915.63;;;30.65;40.50
81243;BME280;70716;50.074;14.496;2023-06-22T13:49:25;98904.81;;;30.63;39.67
81243;BME280;70716;50.074;14.496;2023-06-22T13:51:51;98895.59;;;30.63;39.04
81243;BME280;70716;50.074;14.496;2023-06-22T13:54:16;98894.47;;;30.47;39.64
81243;BME280;70716;50.074;14.496;2023-06-22T13:56:45;98902.91;;;30.47;39.86
81243;BME280;70716;50.074;14.496;2023-06-22T13:59:10;98899.34;;;30.60;40.79
81243;BME280;70716;50.074;14.496;2023-06-22T14:01:36;98899.97;;;30.51;40.04
81243;BME280;70716;50.074;14.496;2023-06-22T14:04:04;98886.03;;;30.47;40.57
81243;BME280;70716;50.074;14.496;2023-06-22T14:06:29;98887.94;;;30.50;41.74
81243;BME280;70716;50.074;14.496;2023-06-22T14:08:58;98878.25;;;30.51;40.80
81243;BME280;70716;50.074;14.496;2023-06-22T14:11:24;98884.69;;;30.65;40.66
81243;BME280;70716;50.074;14.496;2023-06-22T14:13:50;98889.75;;;30.70;40.31
81243;BME280;70716;50.074;14.496;2023-06-22T14:16:19;98882.66;;;30.78;40.38
81243;BME280;70716;50.074;14.496;2023-06-22T14:18:45;98874.78;;;30.73;39.72
81243;BME280;70716;50.074;14.496;2023-06-22T14:21:10;98880.72;;;30.75;40.33
81243;BME280;70716;50.074;14.496;2023-06-22T14:23:36;98887.25;;;30.72;40.32
81243;BME280;70716;50.074;14.496;2023-06-22T14:26:02;98887.25;;;30.72;40.36
81243;BME280;70716;50.074;14.496;2023-06-22T14:28:28;98877.94;;;30.49;40.50
81243;BME280;70716;50.074;14.496;2023-06-22T14:30:53;98882.31;;;30.50;41.40
81243;BME280;70716;50.074;14.496;2023-06-22T14:33:19;98876.38;;;30.61;41.83
81243;BME280;70716;50.074;14.496;2023-06-22T14:35:44;98869.94;;;30.73;41.25
81243;BME280;70716;50.074;14.496;2023-06-22T14:38:09;98866.00;;;30.71;42.36
81243;BME280;70716;50.074;14.496;2023-06-22T14:40:35;98857.94;;;30.60;41.47
81243;BME280;70716;50.074;14.496;2023-06-22T14:43:00;98860.81;;;30.69;41.62
81243;BME280;70716;50.074;14.496;2023-06-22T14:45:26;98853.09;;;30.61;40.27
81243;BME280;70716;50.074;14.496;2023-06-22T14:47:51;98853.75;;;30.65;40.67
81243;BME280;70716;50.074;14.496;2023-06-22T14:50:17;98849.25;;;30.54;41.38
81243;BME280;70716;50.074;14.496;2023-06-22T14:52:44;98845.91;;;30.60;41.27
81243;BME280;70716;50.074;14.496;2023-06-22T14:55:09;98844.88;;;30.53;41.36
81243;BME280;70716;50.074;14.496;2023-06-22T14:57:34;98843.16;;;30.56;40.55
81243;BME280;70716;50.074;14.496;2023-06-22T15:00:00;98841.16;;;30.57;39.56
81243;BME280;70716;50.074;14.496;2023-06-22T15:02:27;98838.78;;;30.55;40.15
81243;BME280;70716;50.074;14.496;2023-06-22T15:04:53;98838.44;;;30.53;40.32
81243;BME280;70716;50.074;14.496;2023-06-22T15:07:21;98836.88;;;30.52;40.55
81243;BME280;70716;50.074;14.496;2023-06-22T15:09:46;98831.38;;;30.48;39.57
81243;BME280;70716;50.074;14.496;2023-06-22T15:12:11;98831.25;;;30.39;39.85
81243;BME280;70716;50.074;14.496;2023-06-22T15:14:46;98833.16;;;30.42;40.25
81243;BME280;70716;50.074;14.496;2023-06-22T15:17:14;98824.63;;;30.46;39.92
81243;BME280;70716;50.074;14.496;2023-06-22T15:19:40;98820.91;;;30.49;40.77
81243;BME280;70716;50.074;14.496;2023-06-22T15:22:07;98821.56;;;30.53;41.00
81243;BME280;70716;50.074;14.496;2023-06-22T15:24:35;98815.84;;;30.57;40.95
81243;BME280;70716;50.074;14.496;2023-06-22T15:27:02;98819.81;;;30.59;41.68
81243;BME280;70716;50.074;14.496;2023-06-22T15:29:27;98816.06;;;30.62;41.33
81243;BME280;70716;50.074;14.496;2023-06-22T15:31:55;98812.69;;;30.67;40.31
81243;BME280;70716;50.074;14.496;2023-06-22T15:34:20;98805.50;;;30.53;40.04
81243;BME280;70716;50.074;14.496;2023-06-22T15:36:49;98807.53;;;30.53;40.16
81243;BME280;70716;50.074;14.496;2023-06-22T15:39:14;98801.56;;;30.51;40.16
81243;BME280;70716;50.074;14.496;2023-06-22T15:41:41;98793.03;;;30.42;38.83
81243;BME280;70716;50.074;14.496;2023-06-22T15:44:13;98786.28;;;30.39;39.58
81243;BME280;70716;50.074;14.496;2023-06-22T15:46:39;98773.78;;;30.40;39.65
81243;BME280;70716;50.074;14.496;2023-06-22T15:49:05;98777.38;;;30.41;40.27
81243;BME280;70716;50.074;14.496;2023-06-22T15:51:31;98757.59;;;30.44;39.93
81243;BME280;70716;50.074;14.496;2023-06-22T15:53:56;98753.22;;;30.43;39.92
81243;BME280;70716;50.074;14.496;2023-06-22T15:56:22;98735.34;;;30.37;40.43
81243;BME280;70716;50.074;14.496;2023-06-22T15:58:50;98738.03;;;30.41;40.59
81243;BME280;70716;50.074;14.496;2023-06-22T16:01:16;98725.53;;;30.42;41.47
81243;BME280;70716;50.074;14.496;2023-06-22T16:03:41;98703.97;;;30.39;41.65
81243;BME280;70716;50.074;14.496;2023-06-22T16:06:09;98708.00;;;30.38;42.03
81243;BME280;70716;50.074;14.496;2023-06-22T16:08:35;98704.53;;;30.34;42.33
81243;BME280;70716;50.074;14.496;2023-06-22T16:11:00;98716.22;;;30.32;41.37
81243;BME280;70716;50.074;14.496;2023-06-22T16:13:26;98711.97;;;30.28;41.28
81243;BME280;70716;50.074;14.496;2023-06-22T16:15:51;98713.09;;;30.17;43.07
81243;BME280;70716;50.074;14.496;2023-06-22T16:18:17;98715.34;;;30.10;42.51
81243;BME280;70716;50.074;14.496;2023-06-22T16:20:43;98722.91;;;30.00;43.91
81243;BME280;70716;50.074;14.496;2023-06-22T16:23:08;98724.25;;;29.96;43.21
81243;BME280;70716;50.074;14.496;2023-06-22T16:25:33;98715.03;;;29.95;42.67
81243;BME280;70716;50.074;14.496;2023-06-22T16:28:00;98726.81;;;29.90;43.65
81243;BME280;70716;50.074;14.496;2023-06-22T16:30:27;98726.16;;;29.86;42.39
81243;BME280;70716;50.074;14.496;2023-06-22T16:32:56;98721.31;;;29.86;42.16
81243;BME280;70716;50.074;14.496;2023-06-22T16:35:25;98727.38;;;29.85;42.87
81243;BME280;70716;50.074;14.496;2023-06-22T16:37:56;98727.72;;;29.74;42.48
81243;BME280;70716;50.074;14.496;2023-06-22T16:40:22;98712.75;;;29.65;42.45